createdAt,value
2018-10-21T00:02:02.837Z,101751
2018-10-21T00:04:31.691Z,101758
2018-10-21T00:07:00.541Z,101751
2018-10-21T00:09:29.377Z,101749
2018-10-21T00:11:58.204Z,101752
2018-10-21T00:14:27.790Z,101743
2018-10-21T00:16:56.628Z,101748
2018-10-21T00:19:25.475Z,101752
2018-10-21T00:21:54.319Z,101751
2018-10-21T00:24:23.163Z,101746
2018-10-21T00:26:52.748Z,101748
2018-10-21T00:29:21.576Z,101753
2018-10-21T00:31:50.411Z,101744
2018-10-21T00:34:19.245Z,101743
2018-10-21T00:36:48.082Z,101738
2018-10-21T00:39:16.947Z,101735
2018-10-21T00:41:45.753Z,101736
2018-10-21T00:44:14.591Z,101733
2018-10-21T00:46:43.437Z,101737
2018-10-21T00:49:12.277Z,101739
2018-10-21T00:51:41.860Z,101742
2018-10-21T00:54:10.692Z,101736
2018-10-21T00:56:39.524Z,101734
2018-10-21T00:59:08.355Z,101736
2018-10-21T01:01:37.202Z,101733
2018-10-21T01:04:06.107Z,101737
2018-10-21T01:06:35.608Z,101731
2018-10-21T01:09:04.503Z,101730
2018-10-21T01:11:33.267Z,101729
2018-10-21T01:14:02.110Z,101734
2018-10-21T01:16:31.568Z,101727
2018-10-21T01:19:00.399Z,101731
2018-10-21T01:21:29.229Z,101720
2018-10-21T01:23:58.060Z,101724
2018-10-21T01:26:26.904Z,101723
2018-10-21T01:28:55.742Z,101725
2018-10-21T01:31:24.598Z,101718
2018-10-21T01:33:53.424Z,101719
2018-10-21T01:36:23.305Z,101719
2018-10-21T01:38:51.844Z,101712
2018-10-21T01:41:20.677Z,101717
2018-10-21T01:43:49.522Z,101712
2018-10-21T01:46:18.381Z,101718
2018-10-21T01:48:47.226Z,101708
2018-10-21T01:51:16.075Z,101710
2018-10-21T01:53:45.630Z,101706
2018-10-21T01:56:14.468Z,101708
2018-10-21T01:58:44.044Z,101704
2018-10-21T02:01:13.476Z,101703
2018-10-21T02:03:43.054Z,101692
2018-10-21T02:06:11.876Z,101695
2018-10-21T02:08:40.713Z,101685
2018-10-21T02:11:09.546Z,101690
2018-10-21T02:13:39.162Z,101689
2018-10-21T02:16:08.011Z,101680
2018-10-21T02:18:36.843Z,101685
2018-10-21T02:21:05.743Z,101681
2018-10-21T02:23:34.508Z,101687
2018-10-21T02:26:04.111Z,101682
2018-10-21T02:28:32.909Z,101682
2018-10-21T02:31:01.750Z,101683
2018-10-21T02:33:30.754Z,101681
2018-10-21T02:35:59.486Z,101684
2018-10-21T02:38:28.262Z,101684
2018-10-21T02:43:46.168Z,101679
2018-10-21T02:46:14.997Z,101685
2018-10-21T02:48:44.575Z,101691
2018-10-21T02:51:13.481Z,101688
2018-10-21T02:53:42.237Z,101687
2018-10-21T02:56:11.071Z,101689
2018-10-21T02:58:39.899Z,101699
2018-10-21T03:01:08.730Z,101700
2018-10-21T03:03:37.569Z,101702
2018-10-21T03:06:06.405Z,101702
2018-10-21T03:08:35.988Z,101696
2018-10-21T03:11:04.824Z,101698
2018-10-21T03:13:34.416Z,101698
2018-10-21T03:16:03.990Z,101696
2018-10-21T03:18:33.613Z,101699
2018-10-21T03:21:02.528Z,101710
2018-10-21T03:23:31.292Z,101710
2018-10-21T03:26:00.137Z,101720
2018-10-21T03:28:28.974Z,101720
2018-10-21T03:30:57.803Z,101721
2018-10-21T03:33:26.789Z,101714
2018-10-21T03:35:55.492Z,101722
2018-10-21T03:38:24.355Z,101721
2018-10-21T03:40:53.147Z,101718
2018-10-21T03:43:22.722Z,101721
2018-10-21T03:45:51.547Z,101721
2018-10-21T03:48:20.393Z,101719
2018-10-21T03:50:49.233Z,101723
2018-10-21T03:53:18.068Z,101732
2018-10-21T03:55:46.908Z,101740
2018-10-21T03:58:15.766Z,101731
2018-10-21T04:00:44.590Z,101724
2018-10-21T04:03:13.427Z,101738
2018-10-21T04:05:42.252Z,101731
2018-10-21T04:08:11.825Z,101733
2018-10-21T04:10:40.655Z,101725
2018-10-21T04:13:09.499Z,101723
2018-10-21T04:15:38.328Z,101724
2018-10-21T04:18:07.917Z,101718
2018-10-21T04:20:36.755Z,101717
2018-10-21T04:23:05.593Z,101722
2018-10-21T04:25:34.425Z,101718
2018-10-21T04:28:03.311Z,101707
2018-10-21T04:30:32.095Z,101706
2018-10-21T04:33:00.929Z,101700
2018-10-21T04:35:29.839Z,101701
2018-10-21T04:38:05.969Z,101699
2018-10-21T04:40:34.794Z,101702
2018-10-21T04:43:04.379Z,101701
2018-10-21T04:45:33.802Z,101704
2018-10-21T04:48:02.635Z,101709
2018-10-21T04:50:31.513Z,101704
2018-10-21T04:53:00.349Z,101703
2018-10-21T04:55:29.192Z,101687
2018-10-21T04:57:58.026Z,101698
2018-10-21T05:00:26.859Z,101712
2018-10-21T05:02:55.688Z,101704
2018-10-21T05:05:24.521Z,101700
2018-10-21T05:07:54.107Z,101696
2018-10-21T05:10:22.935Z,101686
2018-10-21T05:12:51.809Z,101682
2018-10-21T05:15:20.678Z,101685
2018-10-21T05:17:49.453Z,101685
2018-10-21T05:20:18.293Z,101682
2018-10-21T05:22:47.134Z,101689
2018-10-21T05:25:15.965Z,101667
2018-10-21T05:27:44.801Z,101666
2018-10-21T05:30:13.627Z,101667
2018-10-21T05:32:43.203Z,101672
2018-10-21T05:35:12.048Z,101674
2018-10-21T05:37:40.922Z,101670
2018-10-21T05:40:09.753Z,101666
2018-10-21T05:42:38.548Z,101669
2018-10-21T05:45:07.387Z,101673
2018-10-21T05:47:36.224Z,101672
2018-10-21T05:50:05.063Z,101669
2018-10-21T05:52:33.897Z,101678
2018-10-21T05:55:02.970Z,101678
2018-10-21T05:57:32.301Z,101682
2018-10-21T06:00:01.160Z,101687
2018-10-21T06:02:29.999Z,101690
2018-10-21T06:04:59.437Z,101688
2018-10-21T06:07:28.267Z,101692
2018-10-21T06:09:57.154Z,101695
2018-10-21T06:12:25.946Z,101693
2018-10-21T06:14:54.781Z,101689
2018-10-21T06:17:24.351Z,101689
2018-10-21T06:19:53.185Z,101701
2018-10-21T06:22:22.018Z,101695
2018-10-21T06:24:50.863Z,101691
2018-10-21T06:27:19.713Z,101691
2018-10-21T06:29:48.573Z,101701
2018-10-21T06:32:17.406Z,101706
2018-10-21T06:34:47.022Z,101710
2018-10-21T06:37:15.861Z,101714
2018-10-21T06:39:44.687Z,101711
2018-10-21T06:42:14.270Z,101723
2018-10-21T06:44:43.116Z,101724
2018-10-21T06:47:11.950Z,101726
2018-10-21T06:49:40.948Z,101727
2018-10-21T06:52:09.783Z,101737
2018-10-21T06:54:38.625Z,101743
2018-10-21T06:57:07.501Z,101737
2018-10-21T06:59:36.297Z,101745
2018-10-21T07:02:05.132Z,101741
2018-10-21T07:04:33.996Z,101751
2018-10-21T07:07:02.802Z,101756
2018-10-21T07:09:31.678Z,101766
2018-10-21T07:12:00.571Z,101764
2018-10-21T07:14:29.439Z,101769
2018-10-21T07:16:58.277Z,101768
2018-10-21T07:19:27.118Z,101765
2018-10-21T07:21:56.001Z,101764
2018-10-21T07:24:24.778Z,101762
2018-10-21T07:26:53.652Z,101766
2018-10-21T07:29:22.500Z,101769
2018-10-21T07:31:51.343Z,101767
2018-10-21T07:34:20.292Z,101765
2018-10-21T07:36:49.019Z,101766
2018-10-21T07:39:17.865Z,101767
2018-10-21T07:41:47.438Z,101764
2018-10-21T07:44:16.275Z,101768
2018-10-21T07:46:45.114Z,101776
2018-10-21T07:49:14.005Z,101769
2018-10-21T07:51:42.790Z,101767
2018-10-21T07:54:11.615Z,101763
2018-10-21T07:56:50.680Z,101767
2018-10-21T07:59:19.517Z,101770
2018-10-21T08:01:48.368Z,101764
2018-10-21T08:04:17.309Z,101758
2018-10-21T08:07:03.849Z,101762
2018-10-21T08:09:32.692Z,101769
2018-10-21T08:12:02.280Z,101760
2018-10-21T08:14:31.157Z,101769
2018-10-21T08:16:59.977Z,101764
2018-10-21T08:19:28.850Z,101767
2018-10-21T08:21:57.755Z,101766
2018-10-21T08:24:26.559Z,101766
2018-10-21T08:26:55.405Z,101758
2018-10-21T08:29:24.228Z,101754
2018-10-21T08:31:53.067Z,101758
2018-10-21T08:34:21.891Z,101753
2018-10-21T08:36:50.728Z,101762
2018-10-21T08:39:19.580Z,101761
2018-10-21T08:41:48.406Z,101760
2018-10-21T08:44:17.236Z,101746
2018-10-21T08:46:46.117Z,101748
2018-10-21T08:49:15.036Z,101753
2018-10-21T08:51:43.739Z,101747
2018-10-21T08:54:12.647Z,101752
2018-10-21T08:56:41.457Z,101742
2018-10-21T08:59:10.288Z,101743
2018-10-21T09:01:39.126Z,101741
2018-10-21T09:04:07.994Z,101734
2018-10-21T09:06:36.799Z,101729
2018-10-21T09:09:05.647Z,101734
2018-10-21T09:11:34.500Z,101729
2018-10-21T09:14:03.332Z,101723
2018-10-21T09:16:32.967Z,101731
2018-10-21T09:19:01.826Z,101731
2018-10-21T09:21:30.665Z,101740
2018-10-21T09:23:59.521Z,101750
2018-10-21T09:26:28.366Z,101745
2018-10-21T09:28:57.208Z,101742
2018-10-21T09:31:26.047Z,101729
2018-10-21T09:33:54.943Z,101744
2018-10-21T09:36:23.733Z,101745
2018-10-21T09:38:52.580Z,101737
2018-10-21T09:41:21.421Z,101737
2018-10-21T09:43:50.997Z,101742
2018-10-21T09:46:19.841Z,101753
2018-10-21T09:48:48.693Z,101737
2018-10-21T09:51:17.545Z,101737
2018-10-21T09:53:46.393Z,101734
2018-10-21T09:56:15.977Z,101741
2018-10-21T09:58:44.942Z,101726
2018-10-21T10:03:49.939Z,101723
2018-10-21T10:06:18.731Z,101724
2018-10-21T10:08:48.312Z,101715
2018-10-21T10:11:17.151Z,101721
2018-10-21T10:13:46.000Z,101716
2018-10-21T10:16:15.746Z,101715
2018-10-21T10:18:44.417Z,101715
2018-10-21T10:21:13.268Z,101706
2018-10-21T10:23:42.118Z,101713
2018-10-21T10:26:10.968Z,101698
2018-10-21T10:28:39.828Z,101699
2018-10-21T10:31:08.711Z,101693
2018-10-21T10:33:37.525Z,101692
2018-10-21T10:36:06.989Z,101690
2018-10-21T10:38:35.814Z,101679
2018-10-21T10:41:04.672Z,101681
2018-10-21T10:43:33.507Z,101673
2018-10-21T10:46:03.103Z,101673
2018-10-21T10:48:31.923Z,101663
2018-10-21T10:51:02.437Z,101661
2018-10-21T10:53:31.227Z,101650
2018-10-21T10:56:01.410Z,101646
2018-10-21T10:58:29.666Z,101647
2018-10-21T11:00:58.559Z,101639
2018-10-21T11:03:30.570Z,101639
2018-10-21T11:05:59.245Z,101633
2018-10-21T11:08:28.102Z,101633
2018-10-21T11:10:56.939Z,101628
2018-10-21T11:13:25.774Z,101617
2018-10-21T11:15:54.600Z,101615
2018-10-21T11:18:23.429Z,101606
2018-10-21T11:20:52.281Z,101609
2018-10-21T11:23:21.122Z,101605
2018-10-21T11:25:49.957Z,101602
2018-10-21T11:28:19.582Z,101596
2018-10-21T11:30:48.381Z,101593
2018-10-21T11:33:17.228Z,101589
2018-10-21T11:35:46.074Z,101594
2018-10-21T11:38:14.907Z,101577
2018-10-21T11:40:43.760Z,101599
2018-10-21T11:43:12.620Z,101587
2018-10-21T11:45:42.295Z,101578
2018-10-21T11:48:11.003Z,101575
2018-10-21T11:50:40.592Z,101583
2018-10-21T11:53:09.443Z,101579
2018-10-21T11:55:38.281Z,101573
2018-10-21T11:58:07.240Z,101571
2018-10-21T12:00:36.033Z,101562
2018-10-21T12:03:04.862Z,101560
2018-10-21T12:05:34.431Z,101559
2018-10-21T12:08:03.265Z,101558
2018-10-21T12:10:32.107Z,101550
2018-10-21T12:13:00.951Z,101554
2018-10-21T12:15:29.775Z,101547
2018-10-21T12:17:58.607Z,101544
2018-10-21T12:20:27.452Z,101540
2018-10-21T12:22:56.317Z,101538
2018-10-21T12:25:25.141Z,101555
2018-10-21T12:27:53.962Z,101537
2018-10-21T12:30:23.565Z,101541
2018-10-21T12:32:52.394Z,101545
2018-10-21T12:35:21.232Z,101533
2018-10-21T12:37:50.654Z,101539
2018-10-21T12:40:19.601Z,101533
2018-10-21T12:42:48.325Z,101532
2018-10-21T12:45:17.984Z,101530
2018-10-21T12:47:46.726Z,101526
2018-10-21T12:50:15.572Z,101526
2018-10-21T12:52:44.462Z,101528
2018-10-21T12:55:13.327Z,101528
2018-10-21T12:57:42.890Z,101516
2018-10-21T13:00:12.464Z,101519
2018-10-21T13:02:41.295Z,101510
2018-10-21T13:05:10.144Z,101512
2018-10-21T13:07:38.986Z,101508
2018-10-21T13:10:07.894Z,101513
2018-10-21T13:12:36.648Z,101512
2018-10-21T13:15:05.478Z,101509
2018-10-21T13:17:34.317Z,101512
2018-10-21T13:20:03.150Z,101510
2018-10-21T13:22:31.994Z,101509
2018-10-21T13:25:00.895Z,101511
2018-10-21T13:27:29.657Z,101511
2018-10-21T13:29:59.077Z,101510
2018-10-21T13:32:27.910Z,101505
2018-10-21T13:34:56.753Z,101496
2018-10-21T13:37:25.626Z,101496
2018-10-21T13:39:55.303Z,101501
2018-10-21T13:42:24.074Z,101497
2018-10-21T13:44:52.905Z,101497
2018-10-21T13:47:21.739Z,101498
2018-10-21T13:49:50.578Z,101493
2018-10-21T13:52:19.592Z,101490
2018-10-21T13:54:48.274Z,101489
2018-10-21T13:57:17.113Z,101499
2018-10-21T13:59:45.953Z,101483
2018-10-21T14:02:14.801Z,101485
2018-10-21T14:04:43.643Z,101475
2018-10-21T14:07:13.241Z,101474
2018-10-21T14:09:42.084Z,101472
2018-10-21T14:12:10.928Z,101471
2018-10-21T14:14:39.771Z,101461
2018-10-21T14:17:08.616Z,101466
2018-10-21T14:19:38.187Z,101462
2018-10-21T14:22:07.092Z,101461
2018-10-21T14:24:35.991Z,101458
2018-10-21T14:27:05.477Z,101457
2018-10-21T14:29:34.325Z,101457
2018-10-21T14:32:03.153Z,101444
2018-10-21T14:34:32.567Z,101448
2018-10-21T14:37:01.859Z,101454
2018-10-21T14:39:30.639Z,101448
2018-10-21T14:41:59.477Z,101446
2018-10-21T14:44:28.311Z,101446
2018-10-21T14:46:57.142Z,101444
2018-10-21T14:49:26.712Z,101451
2018-10-21T14:51:55.569Z,101447
2018-10-21T14:54:24.411Z,101445
2018-10-21T14:56:53.252Z,101432
2018-10-21T14:59:22.077Z,101439
2018-10-21T15:01:50.921Z,101433
2018-10-21T15:04:19.744Z,101433
2018-10-21T15:06:48.574Z,101433
2018-10-21T15:09:17.489Z,101435
2018-10-21T15:11:46.268Z,101425
2018-10-21T15:14:15.157Z,101428
2018-10-21T15:16:43.975Z,101424
2018-10-21T15:19:12.805Z,101426
2018-10-21T15:21:42.370Z,101426
2018-10-21T15:24:11.213Z,101431
2018-10-21T15:26:40.067Z,101427
2018-10-21T15:29:08.974Z,101425
2018-10-21T15:31:37.731Z,101424
2018-10-21T15:34:06.630Z,101420
2018-10-21T15:36:35.423Z,101420
2018-10-21T15:39:04.350Z,101427
2018-10-21T15:41:33.270Z,101427
2018-10-21T15:44:02.869Z,101426
2018-10-21T15:46:31.658Z,101426
2018-10-21T15:49:00.531Z,101422
2018-10-21T15:51:29.368Z,101437
2018-10-21T15:53:58.215Z,101431
2018-10-21T15:56:27.048Z,101430
2018-10-21T15:58:56.795Z,101428
2018-10-21T16:01:25.428Z,101425
2018-10-21T16:03:54.258Z,101428
2018-10-21T16:06:23.896Z,101422
2018-10-21T16:08:53.013Z,101439
2018-10-21T16:11:21.855Z,101423
2018-10-21T16:13:51.425Z,101420
2018-10-21T16:16:20.315Z,101422
2018-10-21T16:18:49.115Z,101423
2018-10-21T16:21:18.135Z,101424
2018-10-21T16:23:47.039Z,101432
2018-10-21T16:26:15.852Z,101426
2018-10-21T16:28:44.684Z,101428
2018-10-21T16:31:13.555Z,101422
2018-10-21T16:33:42.355Z,101426
2018-10-21T16:36:11.196Z,101422
2018-10-21T16:38:40.030Z,101414
2018-10-21T16:41:08.856Z,101423
2018-10-21T16:43:37.724Z,101422
2018-10-21T16:46:06.555Z,101419
2018-10-21T16:48:35.384Z,101428
2018-10-21T16:51:04.287Z,101436
2018-10-21T16:53:33.052Z,101421
2018-10-21T16:56:01.951Z,101422
2018-10-21T16:58:30.769Z,101433
2018-10-21T17:01:00.387Z,101430
2018-10-21T17:03:29.207Z,101429
2018-10-21T17:05:58.068Z,101433
2018-10-21T17:08:26.861Z,101444
2018-10-21T17:10:55.746Z,101430
2018-10-21T17:13:24.544Z,101438
2018-10-21T17:15:53.395Z,101436
2018-10-21T17:18:22.234Z,101432
2018-10-21T17:20:51.075Z,101430
2018-10-21T17:23:19.912Z,101436
2018-10-21T17:25:48.767Z,101442
2018-10-21T17:28:18.372Z,101438
2018-10-21T17:30:47.963Z,101439
2018-10-21T17:33:16.804Z,101432
2018-10-21T17:35:45.645Z,101431
2018-10-21T17:38:14.480Z,101433
2018-10-21T17:40:43.403Z,101432
2018-10-21T17:43:12.171Z,101428
2018-10-21T17:45:41.009Z,101427
2018-10-21T17:48:10.580Z,101428
2018-10-21T17:50:39.454Z,101427
2018-10-21T17:53:08.988Z,101429
2018-10-21T17:55:37.836Z,101437
2018-10-21T17:58:06.759Z,101424
2018-10-21T18:00:35.552Z,101437
2018-10-21T18:03:04.385Z,101436
2018-10-21T18:05:33.952Z,101436
2018-10-21T18:08:03.532Z,101439
2018-10-21T18:10:32.381Z,101442
2018-10-21T18:13:01.274Z,101439
2018-10-21T18:15:30.071Z,101450
2018-10-21T18:17:58.901Z,101441
2018-10-21T18:20:27.777Z,101438
2018-10-21T18:22:56.581Z,101436
2018-10-21T18:25:25.416Z,101436
2018-10-21T18:27:54.336Z,101435
2018-10-21T18:30:23.871Z,101433
2018-10-21T18:32:52.812Z,101444
2018-10-21T18:35:21.559Z,101437
2018-10-21T18:37:50.401Z,101440
2018-10-21T18:40:19.387Z,101435
2018-10-21T18:42:48.169Z,101437
2018-10-21T18:45:16.913Z,101439
2018-10-21T18:47:45.766Z,101443
2018-10-21T18:50:14.615Z,101435
2018-10-21T18:52:44.226Z,101438
2018-10-21T18:55:13.099Z,101438
2018-10-21T18:57:41.925Z,101440
2018-10-21T19:00:10.783Z,101437
2018-10-21T19:02:40.364Z,101439
2018-10-21T19:05:09.205Z,101449
2018-10-21T19:07:38.049Z,101434
2018-10-21T19:10:06.946Z,101443
2018-10-21T19:12:35.727Z,101431
2018-10-21T19:15:04.577Z,101439
2018-10-21T19:17:33.416Z,101435
2018-10-21T19:20:02.262Z,101439
2018-10-21T19:22:31.103Z,101437
2018-10-21T19:25:00.758Z,101440
2018-10-21T19:27:29.586Z,101434
2018-10-21T19:29:58.417Z,101440
2018-10-21T19:32:27.248Z,101441
2018-10-21T19:34:56.087Z,101444
2018-10-21T19:37:24.926Z,101447
2018-10-21T19:39:53.780Z,101445
2018-10-21T19:42:23.341Z,101444
2018-10-21T19:44:52.770Z,101449
2018-10-21T19:47:21.616Z,101447
2018-10-21T19:49:50.480Z,101444
2018-10-21T19:52:19.296Z,101442
2018-10-21T19:54:48.145Z,101449
2018-10-21T19:57:17.052Z,101447
2018-10-21T19:59:45.882Z,101451
2018-10-21T20:02:14.737Z,101444
2018-10-21T20:04:43.551Z,101443
2018-10-21T20:07:13.161Z,101448
2018-10-21T20:09:41.972Z,101449
2018-10-21T20:12:10.861Z,101448
2018-10-21T20:14:39.650Z,101456
2018-10-21T20:17:09.751Z,101452
2018-10-21T20:19:38.606Z,101453
2018-10-21T20:22:07.579Z,101452
2018-10-21T20:24:36.480Z,101453
2018-10-21T20:27:05.361Z,101459
2018-10-21T20:29:35.131Z,101458
2018-10-21T20:32:03.928Z,101454
2018-10-21T20:34:33.504Z,101455
2018-10-21T20:37:02.345Z,101468
2018-10-21T20:39:31.192Z,101465
2018-10-21T20:42:00.104Z,101463
2018-10-21T20:44:28.885Z,101463
2018-10-21T20:46:57.729Z,101461
2018-10-21T20:49:26.559Z,101466
2018-10-21T20:51:56.181Z,101465
2018-10-21T20:54:25.001Z,101462
2018-10-21T20:56:53.837Z,101466
2018-10-21T20:59:23.426Z,101468
2018-10-21T21:01:52.239Z,101472
2018-10-21T21:04:21.832Z,101475
2018-10-21T21:06:50.671Z,101477
2018-10-21T21:09:19.762Z,101478
2018-10-21T21:11:49.109Z,101482
2018-10-21T21:14:17.940Z,101484
2018-10-21T21:16:46.789Z,101481
2018-10-21T21:19:15.629Z,101488
2018-10-21T21:21:44.468Z,101486
2018-10-21T21:24:13.327Z,101480
2018-10-21T21:26:42.151Z,101482
2018-10-21T21:29:11.736Z,101489
2018-10-21T21:31:40.998Z,101475
2018-10-21T21:34:09.872Z,101476
2018-10-21T21:36:38.672Z,101481
2018-10-21T21:39:07.504Z,101487
2018-10-21T21:41:36.334Z,101485
2018-10-21T21:44:05.919Z,101479
2018-10-21T21:46:34.857Z,101480
2018-10-21T21:49:04.387Z,101481
2018-10-21T21:51:33.213Z,101482
2018-10-21T21:54:02.092Z,101476
2018-10-21T21:56:30.875Z,101483
2018-10-21T21:59:00.473Z,101482
2018-10-21T22:01:29.326Z,101485
2018-10-21T22:03:58.255Z,101480
2018-10-21T22:06:27.000Z,101473
2018-10-21T22:08:55.829Z,101474
2018-10-21T22:11:24.669Z,101470
2018-10-21T22:13:53.507Z,101479
2018-10-21T22:16:22.339Z,101477
2018-10-21T22:18:51.166Z,101475
2018-10-21T22:21:19.999Z,101478
2018-10-21T22:23:49.577Z,101479
2018-10-21T22:26:18.419Z,101480
2018-10-21T22:28:47.263Z,101475
2018-10-21T22:31:16.691Z,101482
2018-10-21T22:33:46.263Z,101479
2018-10-21T22:36:15.113Z,101481
2018-10-21T22:38:44.676Z,101476
2018-10-21T22:41:14.104Z,101479
2018-10-21T22:43:43.675Z,101473
2018-10-21T22:46:12.597Z,101476
2018-10-21T22:48:41.340Z,101467
2018-10-21T22:51:10.186Z,101468
2018-10-21T22:53:39.027Z,101471
2018-10-21T22:56:07.871Z,101474
2018-10-21T22:58:36.704Z,101472
2018-10-21T23:01:05.528Z,101474
2018-10-21T23:03:35.100Z,101472
2018-10-21T23:06:03.983Z,101469
2018-10-21T23:08:33.510Z,101465
2018-10-21T23:11:02.342Z,101470
2018-10-21T23:13:31.164Z,101465
2018-10-21T23:16:00.070Z,101471
2018-10-21T23:18:28.960Z,101473
2018-10-21T23:20:57.727Z,101478
2018-10-21T23:23:26.583Z,101470
2018-10-21T23:25:55.423Z,101469
2018-10-21T23:28:24.258Z,101466
2018-10-21T23:30:53.090Z,101471
2018-10-21T23:33:21.916Z,101470
2018-10-21T23:35:50.740Z,101470
2018-10-21T23:38:19.581Z,101463
2018-10-21T23:40:48.416Z,101460
2018-10-21T23:43:17.243Z,101458
2018-10-21T23:45:46.077Z,101456
2018-10-21T23:48:14.982Z,101454
2018-10-21T23:50:43.739Z,101454
2018-10-21T23:53:12.565Z,101452
2018-10-21T23:55:41.403Z,101453
2018-10-21T23:58:10.324Z,101455
